Time;durP1;ratioP1;P1;durP2;ratioP2;P2;SDS_P1;SDS_P2;PMS_P1;PMS_P2;Temp;Humidity;BMP_temperature;BMP_pressure;BME280_temperature;BME280_humidity;BME280_pressure;Samples;Min_cycle;Max_cycle;Signal;HPM_P1;HPM_P2
2022/08/27 00:00:40;;;;;;;23.57;12.80;;;;;;;;;;4323318;28;10000997;-76
2022/08/27 00:03:06;;;;;;;16.33;10.48;;;;;;;;;;5017148;28;20466;-76
2022/08/27 00:05:32;;;;;;;18.92;9.80;;;;;;;;;;5016091;28;20033;-76
2022/08/27 00:07:59;;;;;;;20.20;10.35;;;;;;;;;;5017390;28;20088;-76
2022/08/27 00:10:26;;;;;;;20.75;12.52;;;;;;;;;;5015789;28;20461;-76
2022/08/27 00:12:54;;;;;;;15.40;9.00;;;;;;;;;;5012090;28;20021;-76
2022/08/27 00:15:20;;;;;;;17.88;9.50;;;;;;;;;;5012292;28;20572;-76
2022/08/27 00:17:47;;;;;;;14.30;8.52;;;;;;;;;;5021534;28;20057;-76
2022/08/27 00:20:14;;;;;;;12.43;8.65;;;;;;;;;;5011967;28;20095;-76
2022/08/27 00:22:40;;;;;;;13.73;9.35;;;;;;;;;;5025895;28;20571;-76
2022/08/27 00:25:06;;;;;;;13.27;8.40;;;;;;;;;;5028028;28;20041;-76
2022/08/27 00:27:32;;;;;;;14.27;8.60;;;;;;;;;;5010547;28;20026;-76
2022/08/27 00:29:59;;;;;;;14.73;7.95;;;;;;;;;;5010592;28;20426;-76
2022/08/27 00:32:25;;;;;;;16.35;9.27;;;;;;;;;;5023314;28;20064;-76
2022/08/27 00:34:51;;;;;;;14.52;9.25;;;;;;;;;;5017714;28;20493;-77
2022/08/27 00:37:18;;;;;;;17.17;9.38;;;;;;;;;;5049501;28;20435;-75
2022/08/27 00:39:44;;;;;;;12.95;8.73;;;;;;;;;;5049855;28;20029;-76
2022/08/27 00:42:10;;;;;;;15.98;8.63;;;;;;;;;;5036237;28;20029;-76
2022/08/27 00:44:37;;;;;;;15.27;9.48;;;;;;;;;;5020212;28;20026;-76
2022/08/27 00:47:05;;;;;;;15.52;9.50;;;;;;;;;;5027461;28;20478;-76
2022/08/27 00:49:43;;;;;;;17.70;9.18;;;;;;;;;;5019143;28;20030;-76
2022/08/27 00:52:29;;;;;;;15.43;9.45;;;;;;;;;;5019412;28;20030;-76
2022/08/27 00:55:10;;;;;;;14.95;10.02;;;;;;;;;;5021732;28;20454;-76
2022/08/27 00:57:37;;;;;;;16.02;10.02;;;;;;;;;;5025296;28;20033;-76
2022/08/27 01:00:06;;;;;;;18.17;9.85;;;;;;;;;;5028932;28;20116;-76
2022/08/27 01:02:32;;;;;;;15.18;10.00;;;;;;;;;;5017611;28;20030;-76
2022/08/27 01:05:10;;;;;;;18.15;10.35;;;;;;;;;;5014442;28;20296;-75
2022/08/27 01:07:37;;;;;;;15.35;10.18;;;;;;;;;;5015843;28;20022;-76
2022/08/27 01:10:06;;;;;;;15.20;9.82;;;;;;;;;;5022281;28;20105;-76
2022/08/27 01:12:33;;;;;;;17.77;10.38;;;;;;;;;;5023522;28;20026;-76
2022/08/27 01:14:59;;;;;;;20.35;10.18;;;;;;;;;;5024160;28;20644;-76
2022/08/27 01:17:26;;;;;;;20.42;11.55;;;;;;;;;;5019161;28;20911;-76
2022/08/27 01:19:54;;;;;;;16.35;9.68;;;;;;;;;;5021574;28;20045;-76
2022/08/27 01:22:23;;;;;;;20.50;10.27;;;;;;;;;;5018679;28;20121;-76
2022/08/27 01:24:51;;;;;;;23.90;11.70;;;;;;;;;;5024504;28;20136;-76
2022/08/27 01:27:18;;;;;;;18.80;10.05;;;;;;;;;;5023564;28;20034;-76
2022/08/27 01:29:45;;;;;;;21.92;12.45;;;;;;;;;;5022357;28;20524;-76
2022/08/27 01:32:20;;;;;;;23.23;13.63;;;;;;;;;;5022789;28;20061;-75
2022/08/27 01:34:46;;;;;;;22.17;12.30;;;;;;;;;;5021129;28;20041;-76
2022/08/27 01:37:12;;;;;;;26.98;14.23;;;;;;;;;;5023486;28;20033;-75
2022/08/27 01:39:40;;;;;;;22.67;12.35;;;;;;;;;;5015611;28;20497;-76
2022/08/27 01:42:08;;;;;;;17.15;11.80;;;;;;;;;;5018140;28;20026;-77
2022/08/27 01:44:42;;;;;;;24.27;13.20;;;;;;;;;;5020888;28;20048;-76
2022/08/27 01:47:08;;;;;;;23.42;12.15;;;;;;;;;;5026237;28;20499;-76
2022/08/27 01:49:34;;;;;;;24.35;12.82;;;;;;;;;;5021225;28;20044;-76
2022/08/27 01:51:59;;;;;;;23.23;12.93;;;;;;;;;;5020777;28;20034;-76
2022/08/27 01:54:25;;;;;;;24.38;14.50;;;;;;;;;;5018459;28;20296;-76
2022/08/27 01:56:51;;;;;;;19.80;12.32;;;;;;;;;;5019310;28;20017;-76
2022/08/27 01:59:17;;;;;;;24.02;13.18;;;;;;;;;;5020613;28;20612;-76
2022/08/27 02:01:43;;;;;;;23.27;13.05;;;;;;;;;;5018493;28;20018;-76
2022/08/27 02:04:09;;;;;;;22.50;13.10;;;;;;;;;;5014852;28;20025;-76
2022/08/27 02:06:35;;;;;;;18.13;11.80;;;;;;;;;;5014240;28;20481;-76
2022/08/27 02:09:02;;;;;;;21.38;13.30;;;;;;;;;;5016351;28;20033;-76
2022/08/27 02:11:28;;;;;;;23.92;12.98;;;;;;;;;;5017156;28;20159;-76
2022/08/27 02:13:54;;;;;;;19.85;12.32;;;;;;;;;;5018090;28;20037;-76
2022/08/27 02:16:20;;;;;;;22.75;12.63;;;;;;;;;;5015761;28;20108;-76
2022/08/27 02:18:47;;;;;;;23.00;13.23;;;;;;;;;;5023910;28;20029;-76
2022/08/27 02:21:13;;;;;;;30.02;14.52;;;;;;;;;;5016547;28;20051;-76
2022/08/27 02:23:40;;;;;;;26.80;14.80;;;;;;;;;;5022641;28;20204;-76
2022/08/27 02:26:06;;;;;;;24.25;13.13;;;;;;;;;;5024502;28;20033;-76
2022/08/27 02:28:33;;;;;;;28.27;15.82;;;;;;;;;;5020417;28;20037;-76
2022/08/27 02:31:00;;;;;;;25.17;13.80;;;;;;;;;;5020406;28;20060;-76
2022/08/27 02:33:26;;;;;;;24.00;14.25;;;;;;;;;;5014017;28;20042;-76
2022/08/27 02:35:52;;;;;;;26.90;14.25;;;;;;;;;;5024044;28;20025;-76
2022/08/27 02:38:19;;;;;;;22.38;13.80;;;;;;;;;;5021592;28;20030;-76
2022/08/27 02:40:45;;;;;;;30.42;15.48;;;;;;;;;;5023448;28;20026;-76
2022/08/27 02:43:11;;;;;;;28.15;14.13;;;;;;;;;;5015357;28;20036;-76
2022/08/27 02:45:37;;;;;;;21.30;13.60;;;;;;;;;;5015927;28;20100;-76
2022/08/27 02:48:06;;;;;;;24.27;15.05;;;;;;;;;;5023351;28;20305;-76
2022/08/27 02:50:33;;;;;;;20.38;12.45;;;;;;;;;;5021225;28;20029;-76
2022/08/27 02:53:01;;;;;;;27.42;15.45;;;;;;;;;;5022439;28;20345;-76
2022/08/27 02:55:27;;;;;;;23.88;13.23;;;;;;;;;;5022311;28;20025;-76
2022/08/27 02:57:53;;;;;;;22.00;13.02;;;;;;;;;;5020168;28;20029;-76
2022/08/27 03:00:20;;;;;;;20.95;12.07;;;;;;;;;;5023057;28;20102;-76
2022/08/27 03:02:47;;;;;;;21.95;12.75;;;;;;;;;;5015419;28;20063;-76
2022/08/27 03:05:13;;;;;;;18.30;12.20;;;;;;;;;;5027225;28;20017;-76
2022/08/27 03:07:40;;;;;;;26.02;12.75;;;;;;;;;;5017344;28;20030;-76
2022/08/27 03:10:06;;;;;;;17.48;11.32;;;;;;;;;;5007437;28;20087;-76
2022/08/27 03:12:35;;;;;;;21.95;12.73;;;;;;;;;;5005398;28;20029;-76
2022/08/27 03:15:01;;;;;;;22.88;13.73;;;;;;;;;;5018495;28;20023;-76
2022/08/27 03:20:11;;;;;;;22.35;13.40;;;;;;;;;;5026657;28;20040;-76
2022/08/27 03:22:39;;;;;;;24.17;14.07;;;;;;;;;;5019979;28;20175;-76
2022/08/27 03:25:05;;;;;;;22.73;14.95;;;;;;;;;;5015912;28;20033;-76
2022/08/27 03:27:31;;;;;;;23.45;13.52;;;;;;;;;;5012139;28;20041;-76
2022/08/27 03:29:57;;;;;;;26.92;14.10;;;;;;;;;;5019197;28;20026;-76
2022/08/27 03:32:23;;;;;;;27.95;16.00;;;;;;;;;;5009018;28;20129;-76
2022/08/27 03:34:49;;;;;;;26.98;15.85;;;;;;;;;;5021967;28;20304;-76
2022/08/27 03:37:15;;;;;;;29.10;14.82;;;;;;;;;;5020437;28;20156;-76
2022/08/27 03:39:41;;;;;;;25.88;14.07;;;;;;;;;;5021327;28;20053;-76
2022/08/27 03:42:07;;;;;;;24.02;13.85;;;;;;;;;;5016644;28;20049;-76
2022/08/27 03:44:33;;;;;;;23.85;13.00;;;;;;;;;;5018029;28;20029;-76
2022/08/27 03:47:00;;;;;;;23.40;13.07;;;;;;;;;;5023505;28;20048;-76
2022/08/27 03:49:26;;;;;;;22.90;12.65;;;;;;;;;;5019078;28;20021;-76
2022/08/27 03:51:52;;;;;;;21.60;11.13;;;;;;;;;;5021505;28;20568;-76
2022/08/27 03:54:19;;;;;;;13.90;10.07;;;;;;;;;;5020128;28;20025;-76
2022/08/27 03:56:45;;;;;;;18.05;11.48;;;;;;;;;;5017435;28;20044;-76
2022/08/27 03:59:11;;;;;;;14.15;10.05;;;;;;;;;;5025390;28;20537;-76
2022/08/27 04:01:37;;;;;;;14.45;10.30;;;;;;;;;;5012393;28;20164;-76
2022/08/27 04:04:03;;;;;;;12.93;9.20;;;;;;;;;;5024331;28;20026;-76
2022/08/27 04:06:29;;;;;;;16.67;11.80;;;;;;;;;;5018847;28;20033;-76
2022/08/27 04:08:55;;;;;;;11.82;9.95;;;;;;;;;;5020664;28;20021;-76
2022/08/27 04:11:22;;;;;;;13.95;10.25;;;;;;;;;;5023088;28;20037;-76
2022/08/27 04:13:48;;;;;;;17.00;11.13;;;;;;;;;;5014931;28;20528;-76
2022/08/27 04:16:14;;;;;;;14.48;10.05;;;;;;;;;;5021425;28;20044;-76
2022/08/27 04:18:40;;;;;;;13.77;10.60;;;;;;;;;;5019902;28;20022;-77
2022/08/27 04:21:07;;;;;;;14.57;9.90;;;;;;;;;;5021574;28;20091;-76
2022/08/27 04:23:33;;;;;;;13.75;9.55;;;;;;;;;;5028226;28;20389;-75
2022/08/27 04:25:59;;;;;;;15.20;9.77;;;;;;;;;;5014207;28;20042;-76
2022/08/27 04:28:25;;;;;;;14.02;9.10;;;;;;;;;;5029284;28;20551;-76
2022/08/27 04:30:51;;;;;;;19.13;10.43;;;;;;;;;;5011959;28;20069;-76
2022/08/27 04:33:17;;;;;;;15.20;10.52;;;;;;;;;;5008409;28;20117;-76
2022/08/27 04:35:43;;;;;;;11.88;9.18;;;;;;;;;;5010288;28;20252;-76
2022/08/27 04:38:09;;;;;;;15.45;9.63;;;;;;;;;;5023304;28;20024;-76
2022/08/27 04:43:21;;;;;;;13.27;8.70;;;;;;;;;;5021887;28;20044;-76
2022/08/27 04:45:48;;;;;;;13.90;8.10;;;;;;;;;;5021032;28;20032;-76
2022/08/27 04:48:15;;;;;;;15.35;8.43;;;;;;;;;;5016523;28;20033;-76
2022/08/27 04:50:42;;;;;;;12.45;7.75;;;;;;;;;;5017167;28;20033;-76
2022/08/27 04:53:12;;;;;;;12.75;7.20;;;;;;;;;;5024329;28;20075;-76
2022/08/27 04:55:45;;;;;;;16.65;8.93;;;;;;;;;;5021401;28;20393;-75
2022/08/27 04:58:11;;;;;;;13.18;8.95;;;;;;;;;;5023611;28;20167;-76
2022/08/27 05:00:58;;;;;;;12.38;7.95;;;;;;;;;;5020589;28;20029;-76
2022/08/27 05:03:25;;;;;;;14.07;9.68;;;;;;;;;;5019117;28;20053;-75
2022/08/27 05:05:52;;;;;;;16.77;8.35;;;;;;;;;;5018244;28;20112;-76
2022/08/27 05:08:18;;;;;;;14.90;8.90;;;;;;;;;;5010496;28;20030;-76
2022/08/27 05:10:45;;;;;;;14.85;8.68;;;;;;;;;;5026950;28;20437;-76
2022/08/27 05:13:12;;;;;;;18.45;9.43;;;;;;;;;;5020193;28;20103;-76
2022/08/27 05:15:38;;;;;;;16.17;9.20;;;;;;;;;;5020864;28;20152;-76
2022/08/27 05:18:05;;;;;;;17.17;10.88;;;;;;;;;;5019831;28;20029;-76
2022/08/27 05:20:32;;;;;;;14.60;9.35;;;;;;;;;;5015910;28;22713;-76
2022/08/27 05:22:59;;;;;;;18.00;11.63;;;;;;;;;;5021956;28;20021;-76
2022/08/27 05:25:25;;;;;;;21.52;11.52;;;;;;;;;;5022644;28;20570;-76
2022/08/27 05:27:51;;;;;;;19.63;12.43;;;;;;;;;;5025644;28;20037;-76
2022/08/27 05:30:17;;;;;;;21.52;13.10;;;;;;;;;;5018324;28;20030;-76
2022/08/27 05:32:43;;;;;;;17.92;11.45;;;;;;;;;;5019528;28;20029;-76
2022/08/27 05:35:09;;;;;;;22.20;11.68;;;;;;;;;;5018775;28;20373;-76
2022/08/27 05:37:36;;;;;;;20.25;11.57;;;;;;;;;;5016497;28;20064;-75
2022/08/27 05:40:04;;;;;;;21.75;13.32;;;;;;;;;;5015589;28;20022;-75
2022/08/27 05:42:30;;;;;;;23.33;12.85;;;;;;;;;;5017293;28;20528;-76
2022/08/27 05:44:57;;;;;;;21.85;12.38;;;;;;;;;;5014659;28;20172;-76
2022/08/27 05:47:23;;;;;;;24.15;12.57;;;;;;;;;;5018206;28;20053;-76
2022/08/27 05:49:52;;;;;;;23.27;13.82;;;;;;;;;;5019127;28;20244;-75
2022/08/27 05:52:19;;;;;;;18.48;12.20;;;;;;;;;;5017092;28;20379;-76
2022/08/27 05:54:45;;;;;;;21.70;11.88;;;;;;;;;;5014953;28;20022;-76
2022/08/27 05:57:11;;;;;;;23.05;12.68;;;;;;;;;;5020411;28;20041;-76
2022/08/27 06:02:21;;;;;;;23.88;13.88;;;;;;;;;;5018365;28;20071;-73
2022/08/27 06:04:47;;;;;;;23.17;14.23;;;;;;;;;;5015766;28;20444;-73
2022/08/27 06:07:14;;;;;;;22.13;13.63;;;;;;;;;;5025074;28;20068;-73
2022/08/27 06:09:40;;;;;;;24.80;14.07;;;;;;;;;;5025600;28;20061;-73
2022/08/27 06:12:06;;;;;;;19.73;11.70;;;;;;;;;;5013384;28;20477;-73
2022/08/27 06:14:33;;;;;;;21.95;11.35;;;;;;;;;;5022733;28;20032;-73
2022/08/27 06:17:02;;;;;;;28.13;14.93;;;;;;;;;;5018309;28;20076;-76
2022/08/27 06:19:28;;;;;;;19.95;12.80;;;;;;;;;;5046996;28;20021;-77
2022/08/27 06:21:54;;;;;;;19.67;11.35;;;;;;;;;;4685842;28;10000037;-75
2022/08/27 06:24:21;;;;;;;22.42;12.20;;;;;;;;;;5005878;28;20362;-77
2022/08/27 06:26:47;;;;;;;16.90;10.38;;;;;;;;;;5030024;28;20060;-81
2022/08/27 06:29:14;;;;;;;19.33;11.27;;;;;;;;;;5019288;28;20061;-76
2022/08/27 06:31:41;;;;;;;18.45;11.90;;;;;;;;;;5015827;28;20482;-75
2022/08/27 06:34:08;;;;;;;19.05;11.55;;;;;;;;;;5021412;28;20033;-77
2022/08/27 06:36:38;;;;;;;19.40;10.98;;;;;;;;;;5023726;28;20033;-76
2022/08/27 06:39:05;;;;;;;19.40;12.25;;;;;;;;;;5029779;28;20254;-76
2022/08/27 06:41:31;;;;;;;20.20;11.65;;;;;;;;;;5021128;28;20022;-75
2022/08/27 06:43:57;;;;;;;21.73;11.88;;;;;;;;;;5004779;28;20498;-78
2022/08/27 06:46:24;;;;;;;19.67;11.00;;;;;;;;;;5027700;28;20033;-78
2022/08/27 06:48:54;;;;;;;18.55;11.15;;;;;;;;;;5025094;28;20112;-76
2022/08/27 06:51:23;;;;;;;19.45;11.63;;;;;;;;;;5023914;28;20482;-77
2022/08/27 06:53:49;;;;;;;16.25;11.05;;;;;;;;;;5026209;28;20358;-77
2022/08/27 06:56:16;;;;;;;16.98;11.63;;;;;;;;;;5015611;28;20037;-73
2022/08/27 06:58:42;;;;;;;20.20;11.75;;;;;;;;;;5014201;28;20057;-73
2022/08/27 07:01:15;;;;;;;18.52;11.48;;;;;;;;;;5017436;28;20033;-73
2022/08/27 07:03:42;;;;;;;22.05;12.18;;;;;;;;;;5019941;28;20021;-72
2022/08/27 07:06:08;;;;;;;20.38;11.82;;;;;;;;;;5020100;28;20490;-73
2022/08/27 07:08:34;;;;;;;18.48;10.65;;;;;;;;;;5014589;28;20541;-72
2022/08/27 07:11:00;;;;;;;13.70;8.90;;;;;;;;;;5014251;28;20060;-73
2022/08/27 07:13:26;;;;;;;17.92;10.15;;;;;;;;;;5022568;28;20490;-73
2022/08/27 07:15:52;;;;;;;18.95;10.00;;;;;;;;;;5021411;28;20025;-73
2022/08/27 07:18:19;;;;;;;17.30;10.52;;;;;;;;;;5023558;28;20055;-73
2022/08/27 07:20:45;;;;;;;15.10;9.43;;;;;;;;;;5010789;28;20490;-73
2022/08/27 07:23:11;;;;;;;16.20;9.07;;;;;;;;;;5011902;28;20057;-73
2022/08/27 07:25:40;;;;;;;13.65;9.15;;;;;;;;;;5026446;28;20053;-73
2022/08/27 07:28:06;;;;;;;14.35;9.32;;;;;;;;;;5023441;28;20036;-73
2022/08/27 07:30:32;;;;;;;13.30;8.93;;;;;;;;;;5011564;28;20029;-73
2022/08/27 07:32:58;;;;;;;16.05;9.90;;;;;;;;;;5010116;28;20117;-73
2022/08/27 07:35:24;;;;;;;13.15;9.25;;;;;;;;;;5016902;28;20116;-73
2022/08/27 07:37:50;;;;;;;15.40;9.50;;;;;;;;;;5010102;28;20414;-73
2022/08/27 07:40:16;;;;;;;13.65;8.10;;;;;;;;;;5019475;28;20029;-73
2022/08/27 07:45:28;;;;;;;13.05;8.32;;;;;;;;;;5022718;28;20169;-73
2022/08/27 07:47:54;;;;;;;14.55;8.57;;;;;;;;;;5023717;28;20029;-73
2022/08/27 07:50:22;;;;;;;11.20;7.35;;;;;;;;;;5016724;28;20033;-73
2022/08/27 07:52:48;;;;;;;14.43;8.85;;;;;;;;;;5018787;28;20431;-74
2022/08/27 07:55:14;;;;;;;18.52;9.32;;;;;;;;;;5012639;28;20017;-73
2022/08/27 07:57:41;;;;;;;17.15;7.93;;;;;;;;;;5021425;28;20045;-73
2022/08/27 08:00:14;;;;;;;15.80;9.40;;;;;;;;;;5020343;28;20041;-73
2022/08/27 08:02:43;;;;;;;15.80;8.85;;;;;;;;;;5006317;28;20104;-73
2022/08/27 08:05:09;;;;;;;14.30;7.97;;;;;;;;;;5017325;28;20199;-72
2022/08/27 08:07:37;;;;;;;13.82;7.35;;;;;;;;;;4314210;28;10000782;-72
2022/08/27 08:10:03;;;;;;;15.25;7.65;;;;;;;;;;5012140;28;20033;-73
2022/08/27 08:12:30;;;;;;;11.63;6.80;;;;;;;;;;5011392;28;20034;-73
2022/08/27 08:14:57;;;;;;;12.45;7.75;;;;;;;;;;5020168;28;20036;-74
2022/08/27 08:17:26;;;;;;;12.88;7.15;;;;;;;;;;5017024;28;20505;-74
2022/08/27 08:19:52;;;;;;;11.82;7.78;;;;;;;;;;5006317;28;20175;-73
2022/08/27 08:22:18;;;;;;;15.25;7.55;;;;;;;;;;5016137;28;20029;-73
2022/08/27 08:24:44;;;;;;;14.10;8.48;;;;;;;;;;5019518;28;20036;-73
2022/08/27 08:27:10;;;;;;;15.70;8.13;;;;;;;;;;5013806;28;20034;-74
2022/08/27 08:29:37;;;;;;;17.75;8.30;;;;;;;;;;5018562;28;20021;-73
2022/08/27 08:32:04;;;;;;;14.45;8.20;;;;;;;;;;5011536;28;20026;-74
2022/08/27 08:34:30;;;;;;;18.27;8.65;;;;;;;;;;5015820;28;20033;-73
2022/08/27 08:36:56;;;;;;;12.05;7.15;;;;;;;;;;5014650;28;20026;-73
2022/08/27 08:39:23;;;;;;;19.05;8.27;;;;;;;;;;5016819;28;20525;-74
2022/08/27 08:41:54;;;;;;;15.40;8.18;;;;;;;;;;5013294;28;20029;-73
2022/08/27 08:44:32;;;;;;;13.88;7.70;;;;;;;;;;5020869;28;20556;-74
2022/08/27 08:46:57;;;;;;;20.33;8.00;;;;;;;;;;5017486;28;20496;-73
2022/08/27 08:49:23;;;;;;;13.23;7.00;;;;;;;;;;5019154;28;20030;-74
2022/08/27 08:51:50;;;;;;;10.07;7.10;;;;;;;;;;5016127;28;20057;-74
2022/08/27 08:54:19;;;;;;;15.80;7.28;;;;;;;;;;5010143;28;20025;-73
2022/08/27 08:56:57;;;;;;;12.95;7.03;;;;;;;;;;5014299;28;20028;-75
2022/08/27 08:59:27;;;;;;;13.68;7.70;;;;;;;;;;5006822;28;20048;-73
2022/08/27 09:01:53;;;;;;;13.98;7.78;;;21.10;99.90;;;;;;5017410;28;20513;-73
2022/08/27 09:04:22;;;;;;;11.45;7.13;;;21.10;99.90;;;;;;5013093;28;20121;-73
2022/08/27 09:07:07;;;;;;;14.77;6.88;;;21.10;99.90;;;;;;5018982;28;20500;-74
2022/08/27 09:10:03;;;;;;;15.32;7.30;;;21.10;99.90;;;;;;5020961;28;20064;-73
2022/08/27 09:12:32;;;;;;;14.95;6.80;;;21.20;99.90;;;;;;5015175;28;20084;-72
2022/08/27 09:15:13;;;;;;;14.38;6.80;;;21.10;99.90;;;;;;5019801;28;20378;-72
2022/08/27 09:17:40;;;;;;;15.57;7.32;;;21.10;99.90;;;;;;5011932;28;20037;-73
2022/08/27 09:20:07;;;;;;;14.10;7.38;;;21.10;99.90;;;;;;5016142;28;20042;-72
2022/08/27 09:22:54;;;;;;;13.75;7.13;;;21.00;99.90;;;;;;5011383;28;20440;-74
2022/08/27 09:25:30;;;;;;;16.13;7.07;;;21.00;99.90;;;;;;5015964;28;20227;-73
2022/08/27 09:27:59;;;;;;;12.27;6.80;;;21.10;99.90;;;;;;5006406;28;20034;-76
2022/08/27 09:30:29;;;;;;;15.18;7.18;;;21.20;99.90;;;;;;5013515;28;20026;-77
2022/08/27 09:32:56;;;;;;;17.13;7.20;;;21.30;99.90;;;;;;5009352;28;20650;-77
2022/08/27 09:35:25;;;;;;;23.13;8.25;;;21.40;99.90;;;;;;5026117;28;20048;-77
2022/08/27 09:37:54;;;;;;;17.13;8.60;;;21.50;99.90;;;;;;5022192;28;20116;-79
2022/08/27 09:40:28;;;;;;;9.57;6.60;;;21.50;99.90;;;;;;5026474;28;20030;-77
2022/08/27 09:43:06;;;;;;;11.55;7.53;;;21.60;99.90;;;;;;5015155;28;20033;-76
2022/08/27 09:45:33;;;;;;;13.75;6.90;;;21.60;99.90;;;;;;5014499;28;20045;-76
2022/08/27 09:48:03;;;;;;;16.55;8.50;;;21.60;99.90;;;;;;5018161;28;20033;-76
2022/08/27 09:50:41;;;;;;;12.75;7.80;;;21.70;99.90;;;;;;5017625;28;20056;-78
2022/08/27 09:53:29;;;;;;;14.20;6.80;;;21.80;99.90;;;;;;5017837;28;20044;-75
2022/08/27 09:55:59;;;;;;;13.25;8.07;;;21.90;99.90;;;;;;5018052;28;20034;-79
2022/08/27 09:58:27;;;;;;;12.13;6.93;;;21.90;99.90;;;;;;5022501;28;20045;-76
2022/08/27 10:01:16;;;;;;;16.58;7.35;;;21.90;99.90;;;;;;5017670;28;20125;-78
2022/08/27 10:03:42;;;;;;;12.43;7.35;;;22.00;99.90;;;;;;5020811;28;20033;-79
2022/08/27 10:06:08;;;;;;;14.50;7.75;;;22.00;99.90;;;;;;5018489;28;20091;-75
2022/08/27 10:08:37;;;;;;;13.60;7.60;;;22.10;99.90;;;;;;5018243;28;20555;-79
2022/08/27 10:11:10;;;;;;;11.30;7.10;;;22.10;99.90;;;;;;5017430;28;20354;-77
2022/08/27 10:14:00;;;;;;;17.20;7.50;;;22.10;99.90;;;;;;5020701;28;20358;-76
2022/08/27 10:16:32;;;;;;;13.95;7.43;;;22.20;99.90;;;;;;5023930;28;20545;-75
2022/08/27 10:19:22;;;;;;;13.90;7.55;;;22.20;99.90;;;;;;5017060;28;20063;-77
2022/08/27 10:22:13;;;;;;;13.32;7.15;;;22.20;99.90;;;;;;5012950;28;20033;-76
2022/08/27 10:25:13;;;;;;;13.00;6.80;;;22.20;99.90;;;;;;5017760;28;20037;-76
2022/08/27 10:27:52;;;;;;;12.25;6.88;;;22.30;99.90;;;;;;5019961;28;20137;-77
2022/08/27 10:30:24;;;;;;;13.98;6.53;;;22.40;99.90;;;;;;5016797;28;20025;-77
2022/08/27 10:32:59;;;;;;;12.40;6.50;;;22.30;99.90;;;;;;5012930;28;20037;-77
2022/08/27 10:35:36;;;;;;;9.25;6.32;;;22.20;99.90;;;;;;5017073;28;20040;-75
2022/08/27 10:38:20;;;;;;;14.00;6.70;;;;;;;;;;5018233;28;20090;-74
2022/08/27 10:40:45;;;;;;;;;;;;;;;;;;5016924;28;20569;-75
2022/08/27 10:43:17;;;;;;;13.82;6.53;;;;;;;;;;5012397;28;20020;-80
2022/08/27 10:45:43;;;;;;;12.40;6.55;;;;;;;;;;5018830;28;20103;-77
2022/08/27 10:48:30;;;;;;;12.57;7.07;;;;;;;;;;5021844;28;20033;-78
2022/08/27 10:51:01;;;;;;;9.93;5.40;;;;;;;;;;5017138;28;20447;-77
2022/08/27 10:54:00;;;;;;;11.82;5.75;;;;;;;;;;5001898;28;20414;-80
2022/08/27 10:56:37;;;;;;;15.65;6.57;;;22.10;99.90;;;;;;4981540;28;20076;-77
2022/08/27 10:59:40;;;;;;;8.75;4.82;;;22.20;99.90;;;;;;5016741;28;20430;-78
2022/08/27 11:02:06;;;;;;;9.93;5.18;;;;;;;;;;5009663;28;20430;-76
2022/08/27 11:04:36;;;;;;;7.57;4.63;;;;;;;;;;5007044;28;20141;-78
2022/08/27 11:07:17;;;;;;;13.95;5.63;;;;;;;;;;5013501;28;20518;-77
2022/08/27 11:09:54;;;;;;;10.88;5.47;;;;;;;;;;5008997;28;20461;-76
2022/08/27 11:12:24;;;;;;;12.70;5.60;;;;;;;;;;5016376;28;20030;-76
2022/08/27 11:14:52;;;;;;;11.18;5.10;;;;;;;;;;5006620;28;20116;-75
2022/08/27 11:17:18;;;;;;;10.20;4.97;;;;;;;;;;5019784;28;20120;-75
2022/08/27 11:19:50;;;;;;;10.13;4.65;;;;;;;;;;5020601;28;20116;-77
2022/08/27 11:22:39;;;;;;;13.38;4.80;;;;;;;;;;5010098;28;20018;-80
2022/08/27 11:25:28;;;;;;;7.65;3.95;;;;;;;;;;5008501;28;20107;-79
2022/08/27 11:27:56;;;;;;;10.75;4.35;;;22.20;99.90;;;;;;5006362;28;20048;-83
2022/08/27 11:30:34;;;;;;;6.63;4.00;;;;;;;;;;5004068;28;20561;-83
2022/08/27 11:33:14;;;;;;;10.88;4.82;;;;;;;;;;5006345;28;20036;-82
2022/08/27 11:35:58;;;;;;;12.05;4.95;;;;;;;;;;5020012;28;20358;-81
2022/08/27 11:38:30;;;;;;;9.95;4.85;;;;;;;;;;5014229;28;20060;-81
2022/08/27 11:41:15;;;;;;;8.95;4.65;;;;;;;;;;5016138;28;20059;-79
2022/08/27 11:43:43;;;;;;;8.85;4.70;;;;;;;;;;5016423;28;20493;-79
2022/08/27 11:46:09;;;;;;;10.40;4.47;;;;;;;;;;5032801;28;20544;-78
2022/08/27 11:48:37;;;;;;;10.93;5.32;;;;;;;;;;5018882;28;20397;-77
2022/08/27 11:51:06;;;;;;;10.05;4.90;;;;;;;;;;5017513;28;20052;-79
2022/08/27 11:53:36;;;;;;;9.65;4.97;;;;;;;;;;5016562;28;20034;-79
2022/08/27 11:56:14;;;;;;;6.43;4.55;;;;;;;;;;5018871;28;20645;-79
2022/08/27 11:58:41;;;;;;;13.23;5.13;;;;;;;;;;5004516;28;20107;-79
2022/08/27 12:01:14;;;;;;;9.57;4.50;;;;;;;;;;5015850;28;20038;-79
2022/08/27 12:03:42;;;;;;;;;;;;;;;;;;5015065;28;20073;-82
2022/08/27 12:06:17;;;;;;;11.88;4.55;;;;;;;;;;5004012;28;20259;-81
2022/08/27 12:08:44;;;;;;;10.35;4.72;;;;;;;;;;5012562;28;20493;-79
2022/08/27 12:11:19;;;;;;;11.60;4.75;;;;;;;;;;5019395;28;20060;-78
2022/08/27 12:13:55;;;;;;;11.40;4.13;;;;;;;;;;5015782;28;20029;-80
2022/08/27 12:16:30;;;;;;;10.95;4.45;;;;;;;;;;5011869;28;20057;-79
2022/08/27 12:19:05;;;;;;;8.88;4.20;;;;;;;;;;5018203;28;20107;-77
2022/08/27 12:21:44;;;;;;;6.78;3.53;;;;;;;;;;5006905;28;20037;-80
2022/08/27 12:24:13;;;;;;;10.23;3.85;;;;;;;;;;5020852;28;20049;-82
2022/08/27 12:26:41;;;;;;;6.85;3.70;;;;;;;;;;5020414;28;20239;-76
2022/08/27 12:29:28;;;;;;;8.93;3.47;;;;;;;;;;5018338;28;20079;-77
2022/08/27 12:32:14;;;;;;;8.60;3.25;;;;;;;;;;5013896;28;20029;-74
2022/08/27 12:34:54;;;;;;;9.15;3.42;;;;;;;;;;5004304;28;20352;-74
2022/08/27 12:37:25;;;;;;;7.57;3.17;;;;;;;;;;5024097;28;20040;-78
2022/08/27 12:39:52;;;;;;;7.15;3.08;;;;;;;;;;5026894;28;20111;-80
2022/08/27 12:42:20;;;;;;;7.18;3.45;;;;;;;;;;5017487;28;20030;-78
2022/08/27 12:44:46;;;;;;;8.25;3.35;;;;;;;;;;5012607;28;20498;-78
2022/08/27 12:47:15;;;;;;;7.10;2.97;;;;;;;;;;5019575;28;20333;-77
2022/08/27 12:49:44;;;;;;;5.30;3.50;;;;;;;;;;5021443;28;20084;-77
2022/08/27 12:52:33;;;;;;;8.15;3.90;;;;;;;;;;5021156;28;20492;-78
2022/08/27 12:55:02;;;;;;;9.82;3.50;;;;;;;;;;4995294;28;20052;-76
2022/08/27 12:57:47;;;;;;;5.45;3.13;;;;;;;;;;5010851;28;20558;-76
2022/08/27 13:00:16;;;;;;;8.25;3.65;;;;;;;;;;5012988;28;20056;-77
2022/08/27 13:03:17;;;;;;;8.10;3.42;;;;;;;;;;5008119;28;20039;-76
2022/08/27 13:05:45;;;;;;;7.38;3.10;;;;;;;;;;4926263;29;20419;-76
2022/08/27 13:08:18;;;;;;;11.45;3.70;;;;;;;;;;5002166;28;20047;-79
2022/08/27 13:10:45;;;;;;;;;;;;;;;;;;5006156;28;20116;-79
2022/08/27 13:13:12;;;;;;;8.20;3.25;;;;;;;;;;5013501;28;20241;-79
2022/08/27 13:15:44;;;;;;;6.82;2.70;;;;;;;;;;5016127;28;20037;-79
2022/08/27 13:18:10;;;;;;;6.93;3.58;;;;;;;;;;5011336;28;20022;-84
2022/08/27 13:20:37;;;;;;;7.40;3.45;;;;;;;;;;5007092;28;20485;-77
2022/08/27 13:23:03;;;;;;;9.20;3.60;;;;;;;;;;5018745;28;20018;-78
2022/08/27 13:25:32;;;;;;;6.85;3.10;;;;;;;;;;5022873;28;20432;-79
2022/08/27 13:28:06;;;;;;;7.07;3.15;;;;;;;;;;5017810;28;20486;-78
2022/08/27 13:30:32;;;;;;;5.55;2.55;;;;;;;;;;5019227;28;20444;-84
2022/08/27 13:32:59;;;;;;;6.07;3.30;;;;;;;;;;5018131;28;20056;-83
2022/08/27 13:35:25;;;;;;;6.70;2.90;;;;;;;;;;5023252;28;20025;-81
2022/08/27 13:37:52;;;;;;;8.15;3.10;;;;;;;;;;5015526;28;20113;-81
2022/08/27 13:40:29;;;;;;;9.00;2.88;;;21.90;99.90;;;;;;5017803;28;20025;-80
2022/08/27 13:43:02;;;;;;;8.32;2.83;;;;;;;;;;5005548;28;20057;-80
2022/08/27 13:45:28;;;;;;;;;;;22.00;99.90;;;;;;5020407;28;20549;-80
2022/08/27 13:47:53;;;;;;;10.73;3.00;;;22.20;99.90;;;;;;5022491;28;19905;-84
2022/08/27 13:50:26;;;;;;;6.60;2.38;;;22.20;99.90;;;;;;5019381;28;20066;-77
2022/08/27 13:55:46;;;;;;;6.00;2.67;;;22.30;99.90;;;;;;5020758;28;20282;-77
2022/08/27 13:58:18;;;;;;;5.93;2.47;;;22.20;99.90;;;;;;5016531;28;20045;-76
2022/08/27 14:00:44;;;;;;;7.75;2.70;;;22.10;99.90;;;;;;5020481;28;20109;-78
2022/08/27 14:03:30;;;;;;;5.80;1.92;;;22.00;99.90;;;;;;5008247;28;20034;-77
2022/08/27 14:05:56;;;;;;;8.55;3.03;;;21.90;99.90;;;;;;5009010;28;20124;-78
2022/08/27 14:08:26;;;;;;;8.63;2.63;;;21.70;99.90;;;;;;5019424;28;20203;-76
2022/08/27 14:11:02;;;;;;;4.30;2.47;;;21.60;99.90;;;;;;5018183;28;20563;-79
2022/08/27 14:13:35;;;;;;;10.48;2.67;;;21.50;99.90;;;;;;5008041;28;20044;-84
2022/08/27 14:16:01;;;;;;;;;;;;;;;;;;5013741;28;20044;-79
2022/08/27 14:18:31;;;;;;;3.92;2.58;;;;;;;;;;5004548;28;19905;-84
2022/08/27 14:20:58;;;;;;;4.55;2.50;;;;;;;;;;5014482;28;20024;-82
2022/08/27 14:23:25;;;;;;;6.47;2.60;;;;;;;;;;5020708;28;20025;-83
2022/08/27 14:25:52;;;;;;;3.67;2.30;;;;;;;;;;5020997;28;20584;-83
2022/08/27 14:28:18;;;;;;;4.60;2.33;;;;;;;;;;5022222;28;20064;-82
2022/08/27 14:30:44;;;;;;;5.38;2.28;;;;;;;;;;5020660;28;20042;-83
2022/08/27 14:33:11;;;;;;;5.25;2.58;;;;;;;;;;5025115;28;20025;-77
2022/08/27 14:35:38;;;;;;;3.50;2.40;;;;;;;;;;5019588;28;20037;-79